sensor_id;sensor_type;location;lat;lon;timestamp;pressure;altitude;pressure_sealevel;temperature;humidity
9225;BME280;4647;48.072;11.616;2023-03-15T00:01:12;94532.97;;;2.30;84.20
9225;BME280;4647;48.072;11.616;2023-03-15T00:03:43;94536.91;;;2.57;84.04
9225;BME280;4647;48.072;11.616;2023-03-15T00:06:15;94535.75;;;2.55;84.18
9225;BME280;4647;48.072;11.616;2023-03-15T00:08:43;94550.75;;;2.77;83.62
9225;BME280;4647;48.072;11.616;2023-03-15T00:11:13;94542.41;;;2.89;83.95
9225;BME280;4647;48.072;11.616;2023-03-15T00:13:41;94529.00;;;2.86;83.74
9225;BME280;4647;48.072;11.616;2023-03-15T00:16:11;94541.97;;;2.84;83.31
9225;BME280;4647;48.072;11.616;2023-03-15T00:18:42;94550.38;;;2.82;83.32
9225;BME280;4647;48.072;11.616;2023-03-15T00:21:14;94538.19;;;2.99;83.21
9225;BME280;4647;48.072;11.616;2023-03-15T00:23:43;94531.31;;;2.91;82.58
9225;BME280;4647;48.072;11.616;2023-03-15T00:26:11;94503.38;;;2.81;82.11
9225;BME280;4647;48.072;11.616;2023-03-15T00:28:40;94546.28;;;3.24;81.55
9225;BME280;4647;48.072;11.616;2023-03-15T00:31:13;94533.66;;;3.28;81.11
9225;BME280;4647;48.072;11.616;2023-03-15T00:33:42;94557.78;;;3.46;80.69
9225;BME280;4647;48.072;11.616;2023-03-15T00:36:14;94530.22;;;3.24;80.39
9225;BME280;4647;48.072;11.616;2023-03-15T00:38:42;94553.16;;;3.28;80.42
9225;BME280;4647;48.072;11.616;2023-03-15T00:41:13;94556.59;;;3.15;81.08
9225;BME280;4647;48.072;11.616;2023-03-15T00:43:42;94552.78;;;3.08;81.21
9225;BME280;4647;48.072;11.616;2023-03-15T00:46:11;94539.72;;;2.96;81.31
9225;BME280;4647;48.072;11.616;2023-03-15T00:48:39;94536.28;;;2.92;81.54
9225;BME280;4647;48.072;11.616;2023-03-15T00:51:10;94532.84;;;2.92;82.20
9225;BME280;4647;48.072;11.616;2023-03-15T00:53:42;94525.59;;;2.99;82.03
9225;BME280;4647;48.072;11.616;2023-03-15T00:56:13;94527.09;;;2.90;82.38
9225;BME280;4647;48.072;11.616;2023-03-15T00:58:43;94533.56;;;2.82;82.95
9225;BME280;4647;48.072;11.616;2023-03-15T01:01:13;94546.50;;;2.65;83.86
9225;BME280;4647;48.072;11.616;2023-03-15T01:03:42;94549.13;;;2.55;84.03
9225;BME280;4647;48.072;11.616;2023-03-15T01:06:12;94572.13;;;2.66;83.59
9225;BME280;4647;48.072;11.616;2023-03-15T01:08:44;94610.56;;;2.40;84.70
9225;BME280;4647;48.072;11.616;2023-03-15T01:11:14;94629.91;;;1.72;85.49
9225;BME280;4647;48.072;11.616;2023-03-15T01:13:44;94633.03;;;1.03;86.13
9225;BME280;4647;48.072;11.616;2023-03-15T01:16:13;94620.09;;;0.72;87.51
9225;BME280;4647;48.072;11.616;2023-03-15T01:18:42;94620.09;;;0.72;87.86
9225;BME280;4647;48.072;11.616;2023-03-15T01:21:12;94609.06;;;0.73;88.09
9225;BME280;4647;48.072;11.616;2023-03-15T01:23:44;94597.56;;;0.69;88.42
9225;BME280;4647;48.072;11.616;2023-03-15T01:26:14;94583.09;;;0.67;88.28
9225;BME280;4647;48.072;11.616;2023-03-15T01:28:43;94587.28;;;0.68;88.11
9225;BME280;4647;48.072;11.616;2023-03-15T01:31:16;94593.44;;;0.72;88.48
9225;BME280;4647;48.072;11.616;2023-03-15T01:33:45;94586.25;;;0.76;88.38
9225;BME280;4647;48.072;11.616;2023-03-15T01:36:14;94579.88;;;0.84;88.10
9225;BME280;4647;48.072;11.616;2023-03-15T01:38:45;94564.69;;;0.91;87.65
9225;BME280;4647;48.072;11.616;2023-03-15T01:41:15;94550.97;;;0.89;87.50
9225;BME280;4647;48.072;11.616;2023-03-15T01:43:44;94560.13;;;0.92;87.24
9225;BME280;4647;48.072;11.616;2023-03-15T01:46:22;94566.53;;;0.84;87.69
9225;BME280;4647;48.072;11.616;2023-03-15T01:48:58;94574.59;;;0.91;87.48
9225;BME280;4647;48.072;11.616;2023-03-15T01:51:33;94556.66;;;0.88;87.35
9225;BME280;4647;48.072;11.616;2023-03-15T01:54:09;94568.97;;;0.96;87.76
9225;BME280;4647;48.072;11.616;2023-03-15T01:56:43;94567.44;;;0.95;87.82
9225;BME280;4647;48.072;11.616;2023-03-15T01:59:17;94561.53;;;0.79;87.80
9225;BME280;4647;48.072;11.616;2023-03-15T02:01:48;94597.00;;;0.83;88.06
9225;BME280;4647;48.072;11.616;2023-03-15T02:04:21;94581.44;;;0.88;88.20
9225;BME280;4647;48.072;11.616;2023-03-15T02:06:54;94602.41;;;0.90;88.14
9225;BME280;4647;48.072;11.616;2023-03-15T02:09:33;94613.16;;;0.97;88.08
9225;BME280;4647;48.072;11.616;2023-03-15T02:12:04;94610.13;;;0.99;87.99
9225;BME280;4647;48.072;11.616;2023-03-15T02:14:33;94569.91;;;0.77;88.02
9225;BME280;4647;48.072;11.616;2023-03-15T02:17:02;94607.47;;;0.99;87.86
9225;BME280;4647;48.072;11.616;2023-03-15T02:19:39;94615.06;;;0.97;87.99
9225;BME280;4647;48.072;11.616;2023-03-15T02:22:17;94623.00;;;0.93;87.89
9225;BME280;4647;48.072;11.616;2023-03-15T02:24:56;94626.25;;;1.09;88.04
9225;BME280;4647;48.072;11.616;2023-03-15T02:27:31;94625.09;;;1.10;87.90
9225;BME280;4647;48.072;11.616;2023-03-15T02:30:01;94636.22;;;1.16;87.35
9225;BME280;4647;48.072;11.616;2023-03-15T02:32:30;94638.84;;;1.12;87.62
9225;BME280;4647;48.072;11.616;2023-03-15T02:34:59;94641.53;;;1.16;87.34
9225;BME280;4647;48.072;11.616;2023-03-15T02:37:27;94652.63;;;1.18;87.43
9225;BME280;4647;48.072;11.616;2023-03-15T02:39:56;94654.59;;;1.21;87.34
9225;BME280;4647;48.072;11.616;2023-03-15T02:42:25;94653.09;;;1.23;87.18
9225;BME280;4647;48.072;11.616;2023-03-15T02:44:56;94658.03;;;1.21;87.44
9225;BME280;4647;48.072;11.616;2023-03-15T02:47:27;94665.53;;;1.12;87.83
9225;BME280;4647;48.072;11.616;2023-03-15T02:49:57;94663.00;;;1.23;87.58
9225;BME280;4647;48.072;11.616;2023-03-15T02:52:25;94669.50;;;1.26;87.36
9225;BME280;4647;48.072;11.616;2023-03-15T02:54:54;94670.59;;;1.21;87.51
9225;BME280;4647;48.072;11.616;2023-03-15T02:57:22;94683.09;;;1.17;87.28
9225;BME280;4647;48.072;11.616;2023-03-15T02:59:51;94676.84;;;1.02;87.82
9225;BME280;4647;48.072;11.616;2023-03-15T03:02:23;94701.06;;;1.20;87.54
9225;BME280;4647;48.072;11.616;2023-03-15T03:04:51;94718.50;;;1.14;87.42
9225;BME280;4647;48.072;11.616;2023-03-15T03:07:19;94736.50;;;0.90;87.72
9225;BME280;4647;48.072;11.616;2023-03-15T03:09:48;94735.72;;;0.90;87.51
9225;BME280;4647;48.072;11.616;2023-03-15T03:12:16;94756.34;;;0.93;87.21
9225;BME280;4647;48.072;11.616;2023-03-15T03:14:45;94772.34;;;0.67;86.92
9225;BME280;4647;48.072;11.616;2023-03-15T03:17:13;94776.50;;;0.64;87.55
9225;BME280;4647;48.072;11.616;2023-03-15T03:19:45;94798.28;;;0.70;87.23
9225;BME280;4647;48.072;11.616;2023-03-15T03:22:13;94805.50;;;0.69;87.67
9225;BME280;4647;48.072;11.616;2023-03-15T03:24:42;94813.50;;;0.69;87.48
9225;BME280;4647;48.072;11.616;2023-03-15T03:27:10;94791.03;;;0.44;88.26
9225;BME280;4647;48.072;11.616;2023-03-15T03:29:39;94819.50;;;0.63;88.16
9225;BME280;4647;48.072;11.616;2023-03-15T03:32:08;94824.38;;;0.57;88.28
9225;BME280;4647;48.072;11.616;2023-03-15T03:34:37;94840.38;;;0.57;88.41
9225;BME280;4647;48.072;11.616;2023-03-15T03:37:09;94839.59;;;0.56;88.35
9225;BME280;4647;48.072;11.616;2023-03-15T03:39:37;94855.13;;;0.51;88.73
9225;BME280;4647;48.072;11.616;2023-03-15T03:42:06;94867.53;;;0.43;88.79
9225;BME280;4647;48.072;11.616;2023-03-15T03:44:35;94870.50;;;0.38;89.00
9225;BME280;4647;48.072;11.616;2023-03-15T03:47:04;94883.47;;;0.40;88.70
9225;BME280;4647;48.072;11.616;2023-03-15T03:49:32;94892.09;;;0.33;88.78
9225;BME280;4647;48.072;11.616;2023-03-15T03:52:00;94893.22;;;0.32;88.59
9225;BME280;4647;48.072;11.616;2023-03-15T03:54:32;94901.22;;;0.32;88.22
9225;BME280;4647;48.072;11.616;2023-03-15T03:57:00;94907.69;;;0.31;88.27
9225;BME280;4647;48.072;11.616;2023-03-15T03:59:28;94912.34;;;0.38;88.05
9225;BME280;4647;48.072;11.616;2023-03-15T04:01:57;94922.66;;;0.39;87.53
9225;BME280;4647;48.072;11.616;2023-03-15T04:04:25;94931.31;;;0.33;87.20
9225;BME280;4647;48.072;11.616;2023-03-15T04:06:54;94938.22;;;0.37;86.73
9225;BME280;4647;48.072;11.616;2023-03-15T04:09:23;94941.78;;;0.45;86.67
9225;BME280;4647;48.072;11.616;2023-03-15T04:11:54;94937.94;;;0.42;86.62
9225;BME280;4647;48.072;11.616;2023-03-15T04:14:23;94951.13;;;0.35;87.04
9225;BME280;4647;48.072;11.616;2023-03-15T04:16:51;94952.44;;;0.45;87.00
9225;BME280;4647;48.072;11.616;2023-03-15T04:19:20;94968.13;;;0.27;87.44
9225;BME280;4647;48.072;11.616;2023-03-15T04:21:48;94966.00;;;0.36;87.05
9225;BME280;4647;48.072;11.616;2023-03-15T04:24:17;94970.63;;;0.20;87.69
9225;BME280;4647;48.072;11.616;2023-03-15T04:26:46;94988.84;;;0.18;87.75
9225;BME280;4647;48.072;11.616;2023-03-15T04:29:17;94991.16;;;0.19;88.03
9225;BME280;4647;48.072;11.616;2023-03-15T04:31:45;94999.50;;;0.18;87.88
9225;BME280;4647;48.072;11.616;2023-03-15T04:34:14;95000.97;;;0.15;87.28
9225;BME280;4647;48.072;11.616;2023-03-15T04:36:43;95012.78;;;-0.02;87.16
9225;BME280;4647;48.072;11.616;2023-03-15T04:39:11;95021.22;;;0.20;86.97
9225;BME280;4647;48.072;11.616;2023-03-15T04:41:40;95009.81;;;0.19;86.80
9225;BME280;4647;48.072;11.616;2023-03-15T04:44:08;95019.41;;;0.05;86.66
9225;BME280;4647;48.072;11.616;2023-03-15T04:46:43;95006.88;;;0.05;86.68
9225;BME280;4647;48.072;11.616;2023-03-15T04:49:12;95030.69;;;0.17;86.04
9225;BME280;4647;48.072;11.616;2023-03-15T04:51:40;95032.09;;;0.11;85.65
9225;BME280;4647;48.072;11.616;2023-03-15T04:54:09;95023.34;;;0.11;85.77
9225;BME280;4647;48.072;11.616;2023-03-15T04:56:37;95026.69;;;0.08;85.84
9225;BME280;4647;48.072;11.616;2023-03-15T04:59:06;95055.94;;;0.23;85.74
9225;BME280;4647;48.072;11.616;2023-03-15T05:01:35;94939.63;;;-0.62;85.56
9225;BME280;4647;48.072;11.616;2023-03-15T05:04:07;95062.50;;;0.10;85.09
9225;BME280;4647;48.072;11.616;2023-03-15T05:06:37;95048.03;;;-0.08;85.26
9225;BME280;4647;48.072;11.616;2023-03-15T05:09:05;95079.28;;;0.11;85.15
9225;BME280;4647;48.072;11.616;2023-03-15T05:11:42;95080.91;;;-0.01;85.85
9225;BME280;4647;48.072;11.616;2023-03-15T05:14:10;95097.00;;;0.03;85.70
9225;BME280;4647;48.072;11.616;2023-03-15T05:16:39;95097.63;;;-0.19;86.31
9225;BME280;4647;48.072;11.616;2023-03-15T05:19:10;95095.47;;;-0.14;86.48
9225;BME280;4647;48.072;11.616;2023-03-15T05:21:39;95097.34;;;-0.14;86.56
9225;BME280;4647;48.072;11.616;2023-03-15T05:24:07;95031.09;;;-0.67;86.32
9225;BME280;4647;48.072;11.616;2023-03-15T05:26:36;95106.59;;;-0.08;86.13
9225;BME280;4647;48.072;11.616;2023-03-15T05:29:05;95100.28;;;-0.35;85.88
9225;BME280;4647;48.072;11.616;2023-03-15T05:31:33;95116.56;;;-0.05;86.25
9225;BME280;4647;48.072;11.616;2023-03-15T05:34:02;95118.88;;;-0.04;85.90
9225;BME280;4647;48.072;11.616;2023-03-15T05:36:34;95127.22;;;-0.05;86.40
9225;BME280;4647;48.072;11.616;2023-03-15T05:39:02;95128.59;;;-0.11;86.09
9225;BME280;4647;48.072;11.616;2023-03-15T05:41:31;95148.09;;;-0.07;86.18
9225;BME280;4647;48.072;11.616;2023-03-15T05:43:59;95140.03;;;0.05;86.07
9225;BME280;4647;48.072;11.616;2023-03-15T05:46:28;95160.03;;;-0.01;86.08
9225;BME280;4647;48.072;11.616;2023-03-15T05:48:57;95149.91;;;0.05;86.59
9225;BME280;4647;48.072;11.616;2023-03-15T05:51:26;95160.03;;;0.15;86.22
9225;BME280;4647;48.072;11.616;2023-03-15T05:53:57;95186.94;;;0.10;85.55
9225;BME280;4647;48.072;11.616;2023-03-15T05:56:25;95114.09;;;-0.29;85.85
9225;BME280;4647;48.072;11.616;2023-03-15T05:58:53;95159.94;;;-0.05;85.78
9225;BME280;4647;48.072;11.616;2023-03-15T06:01:22;95162.38;;;0.01;85.46
9225;BME280;4647;48.072;11.616;2023-03-15T06:03:51;95188.31;;;0.04;85.74
9225;BME280;4647;48.072;11.616;2023-03-15T06:06:19;95188.97;;;0.16;85.42
9225;BME280;4647;48.072;11.616;2023-03-15T06:08:48;95198.44;;;0.14;85.31
9225;BME280;4647;48.072;11.616;2023-03-15T06:11:19;95207.13;;;0.11;85.17
9225;BME280;4647;48.072;11.616;2023-03-15T06:13:47;95157.81;;;-0.46;85.04
9225;BME280;4647;48.072;11.616;2023-03-15T06:16:16;95141.69;;;-0.22;85.36
9225;BME280;4647;48.072;11.616;2023-03-15T06:18:45;95183.47;;;-0.07;84.90
9225;BME280;4647;48.072;11.616;2023-03-15T06:21:13;95210.53;;;-0.05;85.41
9225;BME280;4647;48.072;11.616;2023-03-15T06:23:42;95219.81;;;-0.14;85.78
9225;BME280;4647;48.072;11.616;2023-03-15T06:26:11;95209.41;;;-0.04;85.22
9225;BME280;4647;48.072;11.616;2023-03-15T06:28:45;95223.16;;;-0.02;85.07
9225;BME280;4647;48.072;11.616;2023-03-15T06:31:14;95233.66;;;0.07;84.89
9225;BME280;4647;48.072;11.616;2023-03-15T06:33:43;95216.22;;;-0.06;84.88
9225;BME280;4647;48.072;11.616;2023-03-15T06:36:12;95227.16;;;0.05;84.92
9225;BME280;4647;48.072;11.616;2023-03-15T06:38:41;95244.84;;;0.13;84.57
9225;BME280;4647;48.072;11.616;2023-03-15T06:41:09;95234.78;;;0.22;84.78
9225;BME280;4647;48.072;11.616;2023-03-15T06:43:40;95241.56;;;0.35;84.51
9225;BME280;4647;48.072;11.616;2023-03-15T06:46:11;95239.25;;;0.34;83.85
9225;BME280;4647;48.072;11.616;2023-03-15T06:48:40;95235.72;;;0.29;84.00
9225;BME280;4647;48.072;11.616;2023-03-15T06:51:09;95240.97;;;0.42;83.98
9225;BME280;4647;48.072;11.616;2023-03-15T06:53:37;95261.03;;;0.71;83.21
9225;BME280;4647;48.072;11.616;2023-03-15T06:56:07;95263.03;;;0.74;82.65
9225;BME280;4647;48.072;11.616;2023-03-15T06:58:35;95263.53;;;0.79;82.27
9225;BME280;4647;48.072;11.616;2023-03-15T07:01:04;95261.72;;;0.83;82.34
9225;BME280;4647;48.072;11.616;2023-03-15T07:03:35;95260.41;;;0.93;82.03
9225;BME280;4647;48.072;11.616;2023-03-15T07:06:04;95269.16;;;0.93;81.60
9225;BME280;4647;48.072;11.616;2023-03-15T07:08:33;95216.41;;;0.68;81.39
9225;BME280;4647;48.072;11.616;2023-03-15T07:11:02;95259.72;;;1.15;80.59
9225;BME280;4647;48.072;11.616;2023-03-15T07:13:30;95260.84;;;0.95;80.61
9225;BME280;4647;48.072;11.616;2023-03-15T07:16:02;95260.09;;;1.14;80.36
9225;BME280;4647;48.072;11.616;2023-03-15T07:18:31;95269.78;;;1.03;80.29
9225;BME280;4647;48.072;11.616;2023-03-15T07:21:04;95261.38;;;0.85;80.71
9225;BME280;4647;48.072;11.616;2023-03-15T07:23:33;95274.53;;;1.13;80.53
9225;BME280;4647;48.072;11.616;2023-03-15T07:26:02;95267.94;;;1.07;80.42
9225;BME280;4647;48.072;11.616;2023-03-15T07:28:30;95271.75;;;1.06;80.57
9225;BME280;4647;48.072;11.616;2023-03-15T07:31:01;95283.56;;;1.24;80.31
9225;BME280;4647;48.072;11.616;2023-03-15T07:33:31;95276.56;;;1.00;80.17
9225;BME280;4647;48.072;11.616;2023-03-15T07:36:04;95289.59;;;1.21;79.64
9225;BME280;4647;48.072;11.616;2023-03-15T07:38:34;95283.81;;;1.00;78.72
9225;BME280;4647;48.072;11.616;2023-03-15T07:41:05;95298.84;;;1.08;79.00
9225;BME280;4647;48.072;11.616;2023-03-15T07:43:33;95289.78;;;1.12;79.38
9225;BME280;4647;48.072;11.616;2023-03-15T07:46:02;95297.19;;;1.19;78.70
9225;BME280;4647;48.072;11.616;2023-03-15T07:48:31;95304.84;;;1.40;78.91
9225;BME280;4647;48.072;11.616;2023-03-15T07:50:59;95288.97;;;1.28;78.52
9225;BME280;4647;48.072;11.616;2023-03-15T07:53:31;95292.53;;;1.16;78.88
9225;BME280;4647;48.072;11.616;2023-03-15T07:56:00;95274.03;;;1.23;78.66
9225;BME280;4647;48.072;11.616;2023-03-15T07:58:29;95294.06;;;1.52;78.56
9225;BME280;4647;48.072;11.616;2023-03-15T08:00:57;95290.38;;;1.60;77.77
9225;BME280;4647;48.072;11.616;2023-03-15T08:03:26;95303.47;;;1.84;78.00
9225;BME280;4647;48.072;11.616;2023-03-15T08:05:56;95287.94;;;1.51;75.27
9225;BME280;4647;48.072;11.616;2023-03-15T08:08:24;95282.19;;;1.49;74.85
9225;BME280;4647;48.072;11.616;2023-03-15T08:10:56;95290.38;;;1.60;75.64
9225;BME280;4647;48.072;11.616;2023-03-15T08:13:24;95298.28;;;1.72;74.29
9225;BME280;4647;48.072;11.616;2023-03-15T08:15:53;95280.56;;;1.26;74.10
9225;BME280;4647;48.072;11.616;2023-03-15T08:18:22;95285.13;;;1.44;73.62
9225;BME280;4647;48.072;11.616;2023-03-15T08:20:53;95223.66;;;1.41;74.65
9225;BME280;4647;48.072;11.616;2023-03-15T08:23:22;95299.13;;;2.19;74.03
9225;BME280;4647;48.072;11.616;2023-03-15T08:25:51;95293.97;;;2.29;73.35
9225;BME280;4647;48.072;11.616;2023-03-15T08:28:22;95296.22;;;1.85;72.36
9225;BME280;4647;48.072;11.616;2023-03-15T08:30:51;95255.03;;;1.86;73.99
9225;BME280;4647;48.072;11.616;2023-03-15T08:33:20;95288.25;;;2.31;74.10
9225;BME280;4647;48.072;11.616;2023-03-15T08:35:51;95301.22;;;2.52;72.30
9225;BME280;4647;48.072;11.616;2023-03-15T08:38:20;95298.38;;;2.18;68.79
9225;BME280;4647;48.072;11.616;2023-03-15T08:40:54;95289.69;;;2.47;69.58
9225;BME280;4647;48.072;11.616;2023-03-15T08:43:26;95268.31;;;2.47;70.40
9225;BME280;4647;48.072;11.616;2023-03-15T08:45:54;95280.03;;;2.62;70.54
9225;BME280;4647;48.072;11.616;2023-03-15T08:48:23;95292.69;;;2.65;71.10
9225;BME280;4647;48.072;11.616;2023-03-15T08:50:52;95290.06;;;2.69;69.48
9225;BME280;4647;48.072;11.616;2023-03-15T08:53:20;95296.25;;;2.99;68.59
9225;BME280;4647;48.072;11.616;2023-03-15T08:55:49;95271.84;;;2.78;67.04
9225;BME280;4647;48.072;11.616;2023-03-15T08:58:18;95283.88;;;3.18;67.05
9225;BME280;4647;48.072;11.616;2023-03-15T09:00:50;95261.38;;;3.22;64.99
9225;BME280;4647;48.072;11.616;2023-03-15T09:03:19;95288.63;;;3.01;65.07
9225;BME280;4647;48.072;11.616;2023-03-15T09:05:54;95285.03;;;2.90;65.21
9225;BME280;4647;48.072;11.616;2023-03-15T09:08:23;95279.88;;;2.78;66.48
9225;BME280;4647;48.072;11.616;2023-03-15T09:10:53;95269.06;;;2.97;64.09
9225;BME280;4647;48.072;11.616;2023-03-15T09:13:22;95285.53;;;2.73;63.70
9225;BME280;4647;48.072;11.616;2023-03-15T09:15:55;95287.13;;;3.04;64.28
9225;BME280;4647;48.072;11.616;2023-03-15T09:18:24;95299.19;;;3.77;63.50
9225;BME280;4647;48.072;11.616;2023-03-15T09:20:52;95291.06;;;3.40;65.09
9225;BME280;4647;48.072;11.616;2023-03-15T09:23:21;95294.25;;;3.49;64.67
9225;BME280;4647;48.072;11.616;2023-03-15T09:25:50;95300.34;;;3.20;65.58
9225;BME280;4647;48.072;11.616;2023-03-15T09:28:19;95300.84;;;3.29;64.74
9225;BME280;4647;48.072;11.616;2023-03-15T09:30:50;95294.44;;;3.63;65.68
9225;BME280;4647;48.072;11.616;2023-03-15T09:33:21;95297.56;;;4.03;63.98
9225;BME280;4647;48.072;11.616;2023-03-15T09:35:51;95275.19;;;4.69;61.15
9225;BME280;4647;48.072;11.616;2023-03-15T09:38:20;95300.66;;;4.89;61.08
9225;BME280;4647;48.072;11.616;2023-03-15T09:40:49;95295.31;;;4.05;60.83
9225;BME280;4647;48.072;11.616;2023-03-15T09:43:38;95303.56;;;3.92;61.30
9225;BME280;4647;48.072;11.616;2023-03-15T09:46:25;95294.50;;;3.70;61.94
9225;BME280;4647;48.072;11.616;2023-03-15T09:49:02;95293.44;;;3.45;63.75
9225;BME280;4647;48.072;11.616;2023-03-15T09:51:37;95301.00;;;3.69;63.20
9225;BME280;4647;48.072;11.616;2023-03-15T09:54:10;95299.06;;;3.66;60.65
9225;BME280;4647;48.072;11.616;2023-03-15T09:56:47;95306.66;;;3.61;62.61
9225;BME280;4647;48.072;11.616;2023-03-15T09:59:16;95296.53;;;4.51;62.17
9225;BME280;4647;48.072;11.616;2023-03-15T10:01:47;95314.88;;;4.49;54.95
9225;BME280;4647;48.072;11.616;2023-03-15T10:04:26;95304.84;;;4.83;58.54
9225;BME280;4647;48.072;11.616;2023-03-15T10:06:57;95296.19;;;5.70;55.65
9225;BME280;4647;48.072;11.616;2023-03-15T10:09:29;95295.41;;;5.69;55.19
9225;BME280;4647;48.072;11.616;2023-03-15T10:12:04;95306.94;;;5.73;54.86
9225;BME280;4647;48.072;11.616;2023-03-15T10:14:49;95312.19;;;5.52;55.55
9225;BME280;4647;48.072;11.616;2023-03-15T10:17:26;95301.97;;;5.86;53.11
9225;BME280;4647;48.072;11.616;2023-03-15T10:20:04;95315.22;;;6.20;52.75
9225;BME280;4647;48.072;11.616;2023-03-15T10:22:39;95328.19;;;6.00;51.27
9225;BME280;4647;48.072;11.616;2023-03-15T10:25:14;95320.00;;;5.78;51.23
9225;BME280;4647;48.072;11.616;2023-03-15T10:27:47;95324.94;;;5.04;52.83
9225;BME280;4647;48.072;11.616;2023-03-15T10:30:18;95318.72;;;5.47;52.03
9225;BME280;4647;48.072;11.616;2023-03-15T10:32:51;95315.31;;;5.58;53.24
9225;BME280;4647;48.072;11.616;2023-03-15T10:35:24;95318.09;;;4.25;52.19
9225;BME280;4647;48.072;11.616;2023-03-15T10:37:53;95320.03;;;3.91;52.75
9225;BME280;4647;48.072;11.616;2023-03-15T10:40:37;95324.94;;;3.85;52.75
9225;BME280;4647;48.072;11.616;2023-03-15T10:43:12;95312.84;;;4.36;52.80
9225;BME280;4647;48.072;11.616;2023-03-15T10:45:57;95320.50;;;4.74;53.20
9225;BME280;4647;48.072;11.616;2023-03-15T10:48:27;95310.13;;;5.24;51.85
9225;BME280;4647;48.072;11.616;2023-03-15T10:51:01;95313.84;;;5.74;50.29
9225;BME280;4647;48.072;11.616;2023-03-15T10:53:31;95312.44;;;5.95;49.33
9225;BME280;4647;48.072;11.616;2023-03-15T10:56:05;95311.09;;;5.60;48.59
9225;BME280;4647;48.072;11.616;2023-03-15T10:58:45;95318.38;;;5.60;46.88
9225;BME280;4647;48.072;11.616;2023-03-15T11:01:22;95305.44;;;5.83;47.95
9225;BME280;4647;48.072;11.616;2023-03-15T11:04:09;95304.53;;;5.50;47.60
9225;BME280;4647;48.072;11.616;2023-03-15T11:06:45;95297.97;;;5.44;47.93
9225;BME280;4647;48.072;11.616;2023-03-15T11:09:17;95303.13;;;5.78;47.05
9225;BME280;4647;48.072;11.616;2023-03-15T11:11:58;95305.72;;;5.64;48.26
9225;BME280;4647;48.072;11.616;2023-03-15T11:14:32;95305.16;;;5.30;47.49
9225;BME280;4647;48.072;11.616;2023-03-15T11:17:04;95293.28;;;5.34;48.14
9225;BME280;4647;48.072;11.616;2023-03-15T11:19:39;95301.66;;;5.22;49.50
9225;BME280;4647;48.072;11.616;2023-03-15T11:22:12;95301.97;;;5.10;48.75
9225;BME280;4647;48.072;11.616;2023-03-15T11:24:41;95290.09;;;5.14;49.55
9225;BME280;4647;48.072;11.616;2023-03-15T11:27:12;95296.59;;;5.10;48.77
9225;BME280;4647;48.072;11.616;2023-03-15T11:29:43;95301.34;;;4.79;48.16
9225;BME280;4647;48.072;11.616;2023-03-15T11:32:16;95302.97;;;4.91;48.05
9225;BME280;4647;48.072;11.616;2023-03-15T11:34:49;95294.75;;;5.21;47.36
9225;BME280;4647;48.072;11.616;2023-03-15T11:37:26;95288.94;;;5.88;45.86
9225;BME280;4647;48.072;11.616;2023-03-15T11:39:59;95281.03;;;6.31;44.03
9225;BME280;4647;48.072;11.616;2023-03-15T11:42:32;95278.00;;;6.93;43.71
9225;BME280;4647;48.072;11.616;2023-03-15T11:45:07;95279.50;;;7.36;43.62
9225;BME280;4647;48.072;11.616;2023-03-15T11:47:45;95276.31;;;7.70;41.42
9225;BME280;4647;48.072;11.616;2023-03-15T11:50:15;95284.91;;;7.15;41.23
9225;BME280;4647;48.072;11.616;2023-03-15T11:52:50;95271.03;;;6.31;41.64
9225;BME280;4647;48.072;11.616;2023-03-15T11:55:23;95294.69;;;5.83;42.06
9225;BME280;4647;48.072;11.616;2023-03-15T11:57:53;95279.19;;;5.48;42.09
9225;BME280;4647;48.072;11.616;2023-03-15T12:03:36;95271.63;;;5.85;43.12
9225;BME280;4647;48.072;11.616;2023-03-15T12:06:33;95273.16;;;5.76;42.04
9225;BME280;4647;48.072;11.616;2023-03-15T12:09:40;95263.09;;;5.59;41.98
9225;BME280;4647;48.072;11.616;2023-03-15T12:12:37;95263.94;;;5.77;42.84
9225;BME280;4647;48.072;11.616;2023-03-15T12:17:58;95271.34;;;6.08;41.15
9225;BME280;4647;48.072;11.616;2023-03-15T12:20:33;95254.72;;;5.71;40.86
9225;BME280;4647;48.072;11.616;2023-03-15T12:23:28;95250.94;;;5.10;42.69
9225;BME280;4647;48.072;11.616;2023-03-15T12:26:09;95249.59;;;5.44;42.82
9225;BME280;4647;48.072;11.616;2023-03-15T12:28:49;95257.69;;;5.51;41.83
9225;BME280;4647;48.072;11.616;2023-03-15T12:31:19;95244.13;;;5.27;43.35
9225;BME280;4647;48.072;11.616;2023-03-15T12:33:50;95250.78;;;5.54;43.49
9225;BME280;4647;48.072;11.616;2023-03-15T12:36:29;95244.53;;;5.25;42.95
9225;BME280;4647;48.072;11.616;2023-03-15T12:39:02;95245.03;;;5.55;43.67
9225;BME280;4647;48.072;11.616;2023-03-15T12:41:38;95234.31;;;5.66;43.33
9225;BME280;4647;48.072;11.616;2023-03-15T12:44:19;95239.66;;;5.52;44.02
9225;BME280;4647;48.072;11.616;2023-03-15T12:46:56;95235.84;;;5.64;44.54
9225;BME280;4647;48.072;11.616;2023-03-15T12:49:34;95237.03;;;5.70;43.84
9225;BME280;4647;48.072;11.616;2023-03-15T12:52:05;95241.03;;;6.29;43.46
9225;BME280;4647;48.072;11.616;2023-03-15T12:54:44;95241.03;;;6.26;42.43
9225;BME280;4647;48.072;11.616;2023-03-15T12:57:19;95249.50;;;6.28;42.00
9225;BME280;4647;48.072;11.616;2023-03-15T12:59:50;95241.44;;;6.21;41.30
9225;BME280;4647;48.072;11.616;2023-03-15T13:02:28;95221.44;;;6.22;41.87
9225;BME280;4647;48.072;11.616;2023-03-15T13:05:24;95241.09;;;6.68;41.65
9225;BME280;4647;48.072;11.616;2023-03-15T13:08:05;95233.34;;;6.38;42.21
9225;BME280;4647;48.072;11.616;2023-03-15T13:10:37;95236.84;;;6.46;41.21
9225;BME280;4647;48.072;11.616;2023-03-15T13:13:16;95225.28;;;6.35;39.85
9225;BME280;4647;48.072;11.616;2023-03-15T13:16:00;95233.75;;;6.15;39.97
9225;BME280;4647;48.072;11.616;2023-03-15T13:18:36;95226.47;;;6.69;40.40
9225;BME280;4647;48.072;11.616;2023-03-15T13:21:14;95235.25;;;7.20;39.91
9225;BME280;4647;48.072;11.616;2023-03-15T13:23:48;95247.22;;;6.62;38.83
9225;BME280;4647;48.072;11.616;2023-03-15T13:26:43;95240.25;;;6.14;39.70
9225;BME280;4647;48.072;11.616;2023-03-15T13:29:23;95241.28;;;5.81;39.99
9225;BME280;4647;48.072;11.616;2023-03-15T13:32:01;95233.31;;;5.92;40.23
9225;BME280;4647;48.072;11.616;2023-03-15T13:34:31;95250.59;;;6.05;40.70
9225;BME280;4647;48.072;11.616;2023-03-15T13:37:00;95241.84;;;6.51;40.51
9225;BME280;4647;48.072;11.616;2023-03-15T13:39:30;95243.38;;;6.70;40.23
9225;BME280;4647;48.072;11.616;2023-03-15T13:42:02;95243.34;;;6.31;40.90
9225;BME280;4647;48.072;11.616;2023-03-15T13:44:33;95259.06;;;6.04;41.83
9225;BME280;4647;48.072;11.616;2023-03-15T13:47:02;95257.59;;;6.45;41.28
9225;BME280;4647;48.072;11.616;2023-03-15T13:49:31;95253.38;;;6.59;43.33